sensor_id;sensor_type;location;lat;lon;timestamp;temperature;humidity
21540;DHT22;10931;52.164;5.518;2022-12-16T00:09:10;16.50;55.40
21540;DHT22;10931;52.164;5.518;2022-12-16T00:11:49;16.50;55.40
21540;DHT22;10931;52.164;5.518;2022-12-16T00:14:28;16.40;55.40
21540;DHT22;10931;52.164;5.518;2022-12-16T00:17:36;16.40;55.40
21540;DHT22;10931;52.164;5.518;2022-12-16T00:20:53;16.40;55.40
21540;DHT22;10931;52.164;5.518;2022-12-16T00:23:24;16.40;55.40
21540;DHT22;10931;52.164;5.518;2022-12-16T00:26:09;16.40;55.40
21540;DHT22;10931;52.164;5.518;2022-12-16T00:32:02;16.40;55.40
21540;DHT22;10931;52.164;5.518;2022-12-16T00:34:46;16.40;55.40
21540;DHT22;10931;52.164;5.518;2022-12-16T00:40:45;16.30;55.40
21540;DHT22;10931;52.164;5.518;2022-12-16T00:43:14;16.30;55.40
21540;DHT22;10931;52.164;5.518;2022-12-16T00:46:13;16.30;55.40
21540;DHT22;10931;52.164;5.518;2022-12-16T00:53:08;16.30;55.50
21540;DHT22;10931;52.164;5.518;2022-12-16T00:56:24;16.30;55.50
21540;DHT22;10931;52.164;5.518;2022-12-16T00:59:23;16.30;55.50
21540;DHT22;10931;52.164;5.518;2022-12-16T01:13:49;16.20;55.50
21540;DHT22;10931;52.164;5.518;2022-12-16T01:19:55;16.20;55.50
21540;DHT22;10931;52.164;5.518;2022-12-16T01:26:14;16.20;55.50
21540;DHT22;10931;52.164;5.518;2022-12-16T01:42:50;16.10;55.60
21540;DHT22;10931;52.164;5.518;2022-12-16T02:05:10;16.00;55.60
21540;DHT22;10931;52.164;5.518;2022-12-16T02:08:22;16.00;55.60
21540;DHT22;10931;52.164;5.518;2022-12-16T02:26:52;15.90;55.60
21540;DHT22;10931;52.164;5.518;2022-12-16T02:49:40;15.80;55.70
21540;DHT22;10931;52.164;5.518;2022-12-16T02:52:39;15.70;55.60
21540;DHT22;10931;52.164;5.518;2022-12-16T02:55:30;15.80;55.70
21540;DHT22;10931;52.164;5.518;2022-12-16T03:07:54;15.70;55.70
21540;DHT22;10931;52.164;5.518;2022-12-16T03:14:00;15.70;55.70
21540;DHT22;10931;52.164;5.518;2022-12-16T03:20:42;15.60;55.70
21540;DHT22;10931;52.164;5.518;2022-12-16T03:24:06;15.60;55.70
21540;DHT22;10931;52.164;5.518;2022-12-16T03:26:42;15.60;55.80
21540;DHT22;10931;52.164;5.518;2022-12-16T03:38:11;15.60;55.80
21540;DHT22;10931;52.164;5.518;2022-12-16T03:40:58;15.50;55.70
21540;DHT22;10931;52.164;5.518;2022-12-16T03:46:50;15.50;55.70
21540;DHT22;10931;52.164;5.518;2022-12-16T03:49:57;15.50;55.70
21540;DHT22;10931;52.164;5.518;2022-12-16T04:01:32;15.50;55.80
21540;DHT22;10931;52.164;5.518;2022-12-16T04:04:16;15.50;55.80
21540;DHT22;10931;52.164;5.518;2022-12-16T04:07:02;15.50;55.80
21540;DHT22;10931;52.164;5.518;2022-12-16T04:26:39;15.40;55.80
21540;DHT22;10931;52.164;5.518;2022-12-16T04:29:31;15.40;55.80
21540;DHT22;10931;52.164;5.518;2022-12-16T04:36:06;15.40;55.90
21540;DHT22;10931;52.164;5.518;2022-12-16T04:39:00;15.40;55.90
21540;DHT22;10931;52.164;5.518;2022-12-16T04:41:54;15.40;55.90
21540;DHT22;10931;52.164;5.518;2022-12-16T04:44:40;15.40;55.90
21540;DHT22;10931;52.164;5.518;2022-12-16T04:47:25;15.30;55.90
21540;DHT22;10931;52.164;5.518;2022-12-16T04:50:10;15.30;55.90
21540;DHT22;10931;52.164;5.518;2022-12-16T04:53:05;15.30;55.90
21540;DHT22;10931;52.164;5.518;2022-12-16T04:55:54;15.30;55.90
21540;DHT22;10931;52.164;5.518;2022-12-16T04:58:56;15.30;55.90
21540;DHT22;10931;52.164;5.518;2022-12-16T05:01:41;15.30;55.90
21540;DHT22;10931;52.164;5.518;2022-12-16T05:04:25;15.30;55.90
21540;DHT22;10931;52.164;5.518;2022-12-16T05:13:57;15.30;56.00
21540;DHT22;10931;52.164;5.518;2022-12-16T05:17:03;15.30;56.00
21540;DHT22;10931;52.164;5.518;2022-12-16T05:19:48;15.30;56.00
21540;DHT22;10931;52.164;5.518;2022-12-16T05:22:35;15.30;56.00
21540;DHT22;10931;52.164;5.518;2022-12-16T05:25:39;15.20;56.00
21540;DHT22;10931;52.164;5.518;2022-12-16T05:28:25;15.20;56.00
21540;DHT22;10931;52.164;5.518;2022-12-16T05:31:32;15.20;56.00
21540;DHT22;10931;52.164;5.518;2022-12-16T05:34:17;15.20;56.00
21540;DHT22;10931;52.164;5.518;2022-12-16T05:37:07;15.20;56.00
21540;DHT22;10931;52.164;5.518;2022-12-16T05:39:51;15.20;56.10
21540;DHT22;10931;52.164;5.518;2022-12-16T05:42:36;15.20;56.00
21540;DHT22;10931;52.164;5.518;2022-12-16T05:45:39;15.20;56.10
21540;DHT22;10931;52.164;5.518;2022-12-16T05:48:23;15.20;56.10
21540;DHT22;10931;52.164;5.518;2022-12-16T05:51:08;15.10;56.00
21540;DHT22;10931;52.164;5.518;2022-12-16T05:53:52;15.20;56.10
21540;DHT22;10931;52.164;5.518;2022-12-16T05:56:49;15.10;56.00
21540;DHT22;10931;52.164;5.518;2022-12-16T05:59:34;15.10;56.10
21540;DHT22;10931;52.164;5.518;2022-12-16T06:02:18;15.10;56.00
21540;DHT22;10931;52.164;5.518;2022-12-16T06:05:12;15.10;56.10
21540;DHT22;10931;52.164;5.518;2022-12-16T06:07:59;15.10;56.10
21540;DHT22;10931;52.164;5.518;2022-12-16T06:10:45;15.10;56.10
21540;DHT22;10931;52.164;5.518;2022-12-16T06:13:29;15.10;56.10
21540;DHT22;10931;52.164;5.518;2022-12-16T06:16:13;15.10;56.10
21540;DHT22;10931;52.164;5.518;2022-12-16T06:19:00;15.10;56.10
21540;DHT22;10931;52.164;5.518;2022-12-16T06:21:44;15.10;56.20
21540;DHT22;10931;52.164;5.518;2022-12-16T06:24:31;15.10;56.40
21540;DHT22;10931;52.164;5.518;2022-12-16T06:30:49;15.30;56.70
21540;DHT22;10931;52.164;5.518;2022-12-16T06:33:34;15.30;56.80
21540;DHT22;10931;52.164;5.518;2022-12-16T06:36:20;15.40;56.80
21540;DHT22;10931;52.164;5.518;2022-12-16T06:39:20;15.50;56.90
21540;DHT22;10931;52.164;5.518;2022-12-16T06:42:06;15.60;56.90
21540;DHT22;10931;52.164;5.518;2022-12-16T06:44:56;15.70;56.90
21540;DHT22;10931;52.164;5.518;2022-12-16T06:47:51;15.80;56.90
21540;DHT22;10931;52.164;5.518;2022-12-16T06:50:35;15.90;57.00
21540;DHT22;10931;52.164;5.518;2022-12-16T06:53:31;15.90;56.90
21540;DHT22;10931;52.164;5.518;2022-12-16T06:56:15;16.00;56.90
21540;DHT22;10931;52.164;5.518;2022-12-16T06:59:00;16.10;56.80
21540;DHT22;10931;52.164;5.518;2022-12-16T07:01:45;16.20;56.80
21540;DHT22;10931;52.164;5.518;2022-12-16T07:04:33;16.30;56.80
21540;DHT22;10931;52.164;5.518;2022-12-16T07:07:17;16.40;56.80
21540;DHT22;10931;52.164;5.518;2022-12-16T07:10:06;16.40;56.70
21540;DHT22;10931;52.164;5.518;2022-12-16T07:13:08;16.50;56.70
21540;DHT22;10931;52.164;5.518;2022-12-16T07:15:52;16.60;56.70
21540;DHT22;10931;52.164;5.518;2022-12-16T07:21:08;16.80;56.60
21540;DHT22;10931;52.164;5.518;2022-12-16T07:24:06;16.80;56.60
21540;DHT22;10931;52.164;5.518;2022-12-16T07:27:10;16.90;56.50
21540;DHT22;10931;52.164;5.518;2022-12-16T07:33:17;17.10;56.40
21540;DHT22;10931;52.164;5.518;2022-12-16T07:36:01;17.20;56.40
21540;DHT22;10931;52.164;5.518;2022-12-16T07:38:58;17.30;56.30
21540;DHT22;10931;52.164;5.518;2022-12-16T07:41:46;17.30;56.20
21540;DHT22;10931;52.164;5.518;2022-12-16T07:44:38;17.40;56.20
21540;DHT22;10931;52.164;5.518;2022-12-16T07:47:25;17.50;56.20
21540;DHT22;10931;52.164;5.518;2022-12-16T07:50:35;17.60;56.10
21540;DHT22;10931;52.164;5.518;2022-12-16T07:53:53;17.70;56.10
21540;DHT22;10931;52.164;5.518;2022-12-16T07:56:39;17.80;56.00
21540;DHT22;10931;52.164;5.518;2022-12-16T08:00:00;17.90;56.00
21540;DHT22;10931;52.164;5.518;2022-12-16T08:02:59;18.00;56.00
21540;DHT22;10931;52.164;5.518;2022-12-16T08:05:48;18.10;55.90
21540;DHT22;10931;52.164;5.518;2022-12-16T08:08:32;18.10;55.80
21540;DHT22;10931;52.164;5.518;2022-12-16T08:11:16;18.10;55.80
21540;DHT22;10931;52.164;5.518;2022-12-16T08:14:01;18.20;55.80
21540;DHT22;10931;52.164;5.518;2022-12-16T08:16:45;18.20;56.40
21540;DHT22;10931;52.164;5.518;2022-12-16T08:19:32;18.20;55.70
21540;DHT22;10931;52.164;5.518;2022-12-16T08:22:16;18.20;55.70
21540;DHT22;10931;52.164;5.518;2022-12-16T08:25:02;18.20;55.70
21540;DHT22;10931;52.164;5.518;2022-12-16T08:27:56;18.20;55.80
21540;DHT22;10931;52.164;5.518;2022-12-16T08:30:40;18.30;55.90
21540;DHT22;10931;52.164;5.518;2022-12-16T08:33:32;18.30;55.90
21540;DHT22;10931;52.164;5.518;2022-12-16T08:36:19;18.30;55.90
21540;DHT22;10931;52.164;5.518;2022-12-16T08:39:03;18.30;56.00
21540;DHT22;10931;52.164;5.518;2022-12-16T08:41:50;18.40;56.00
21540;DHT22;10931;52.164;5.518;2022-12-16T08:44:34;18.40;56.00
21540;DHT22;10931;52.164;5.518;2022-12-16T08:47:21;18.40;56.00
21540;DHT22;10931;52.164;5.518;2022-12-16T08:50:16;18.40;56.00
21540;DHT22;10931;52.164;5.518;2022-12-16T08:53:01;18.40;56.10
21540;DHT22;10931;52.164;5.518;2022-12-16T08:55:47;18.40;56.10
21540;DHT22;10931;52.164;5.518;2022-12-16T08:58:33;18.40;56.10
21540;DHT22;10931;52.164;5.518;2022-12-16T09:01:23;18.40;56.10
21540;DHT22;10931;52.164;5.518;2022-12-16T09:04:21;18.40;56.10
21540;DHT22;10931;52.164;5.518;2022-12-16T09:07:07;18.40;56.10
21540;DHT22;10931;52.164;5.518;2022-12-16T09:09:52;18.50;56.10
21540;DHT22;10931;52.164;5.518;2022-12-16T09:12:36;18.50;56.10
21540;DHT22;10931;52.164;5.518;2022-12-16T09:15:24;18.50;56.10
21540;DHT22;10931;52.164;5.518;2022-12-16T09:18:17;18.50;56.20
21540;DHT22;10931;52.164;5.518;2022-12-16T09:21:01;18.50;56.20
21540;DHT22;10931;52.164;5.518;2022-12-16T09:23:47;18.60;56.20
21540;DHT22;10931;52.164;5.518;2022-12-16T09:26:35;18.60;56.20
21540;DHT22;10931;52.164;5.518;2022-12-16T09:29:28;18.60;56.20
21540;DHT22;10931;52.164;5.518;2022-12-16T09:32:15;18.60;56.20
21540;DHT22;10931;52.164;5.518;2022-12-16T09:35:04;18.60;56.20
21540;DHT22;10931;52.164;5.518;2022-12-16T09:37:49;18.60;56.20
21540;DHT22;10931;52.164;5.518;2022-12-16T09:40:33;18.70;56.20
21540;DHT22;10931;52.164;5.518;2022-12-16T09:46:43;18.70;56.80
21540;DHT22;10931;52.164;5.518;2022-12-16T09:49:48;18.70;56.20
21540;DHT22;10931;52.164;5.518;2022-12-16T09:53:03;18.70;56.10
21540;DHT22;10931;52.164;5.518;2022-12-16T09:55:51;18.70;56.10
21540;DHT22;10931;52.164;5.518;2022-12-16T09:58:57;18.70;56.10
21540;DHT22;10931;52.164;5.518;2022-12-16T10:01:43;18.80;56.10
21540;DHT22;10931;52.164;5.518;2022-12-16T10:04:27;18.80;56.10
21540;DHT22;10931;52.164;5.518;2022-12-16T10:07:29;18.80;56.10
21540;DHT22;10931;52.164;5.518;2022-12-16T10:10:24;18.80;56.10
21540;DHT22;10931;52.164;5.518;2022-12-16T10:17:09;18.80;56.10
21540;DHT22;10931;52.164;5.518;2022-12-16T10:20:44;18.80;56.10
21540;DHT22;10931;52.164;5.518;2022-12-16T10:27:14;18.80;56.10
21540;DHT22;10931;52.164;5.518;2022-12-16T10:30:11;18.80;56.10
21540;DHT22;10931;52.164;5.518;2022-12-16T10:32:59;18.90;56.20
21540;DHT22;10931;52.164;5.518;2022-12-16T10:35:50;18.90;56.10
21540;DHT22;10931;52.164;5.518;2022-12-16T10:38:41;18.90;56.20
21540;DHT22;10931;52.164;5.518;2022-12-16T10:41:31;18.90;56.20
21540;DHT22;10931;52.164;5.518;2022-12-16T10:47:49;18.90;56.20
21540;DHT22;10931;52.164;5.518;2022-12-16T10:50:38;19.00;56.20
21540;DHT22;10931;52.164;5.518;2022-12-16T10:53:34;19.00;56.20
21540;DHT22;10931;52.164;5.518;2022-12-16T10:59:42;19.00;56.20
21540;DHT22;10931;52.164;5.518;2022-12-16T11:02:39;19.00;56.20
21540;DHT22;10931;52.164;5.518;2022-12-16T11:05:33;19.10;56.30
21540;DHT22;10931;52.164;5.518;2022-12-16T11:08:30;19.10;56.30
21540;DHT22;10931;52.164;5.518;2022-12-16T11:14:30;19.20;56.40
21540;DHT22;10931;52.164;5.518;2022-12-16T11:17:35;19.20;56.40
21540;DHT22;10931;52.164;5.518;2022-12-16T11:20:24;19.20;56.30
21540;DHT22;10931;52.164;5.518;2022-12-16T11:23:30;19.20;56.20
21540;DHT22;10931;52.164;5.518;2022-12-16T11:26:17;19.20;56.20
21540;DHT22;10931;52.164;5.518;2022-12-16T11:32:25;19.20;56.10
21540;DHT22;10931;52.164;5.518;2022-12-16T11:35:16;19.20;56.10
21540;DHT22;10931;52.164;5.518;2022-12-16T11:38:10;19.20;56.10
21540;DHT22;10931;52.164;5.518;2022-12-16T11:41:26;19.20;56.10
21540;DHT22;10931;52.164;5.518;2022-12-16T11:44:20;19.20;56.10
21540;DHT22;10931;52.164;5.518;2022-12-16T11:47:16;19.20;56.00
21540;DHT22;10931;52.164;5.518;2022-12-16T11:50:17;19.20;56.00
21540;DHT22;10931;52.164;5.518;2022-12-16T11:56:21;19.20;56.00
21540;DHT22;10931;52.164;5.518;2022-12-16T11:59:37;19.10;55.90
21540;DHT22;10931;52.164;5.518;2022-12-16T12:05:40;19.10;55.90
21540;DHT22;10931;52.164;5.518;2022-12-16T12:15:39;19.10;55.90
21540;DHT22;10931;52.164;5.518;2022-12-16T12:21:55;19.00;55.80
21540;DHT22;10931;52.164;5.518;2022-12-16T12:28:05;19.00;55.80
21540;DHT22;10931;52.164;5.518;2022-12-16T12:34:03;19.00;55.80
21540;DHT22;10931;52.164;5.518;2022-12-16T12:40:58;18.90;56.00
21540;DHT22;10931;52.164;5.518;2022-12-16T12:49:51;18.90;55.70
21540;DHT22;10931;52.164;5.518;2022-12-16T12:59:10;18.80;55.70
21540;DHT22;10931;52.164;5.518;2022-12-16T13:01:58;18.80;55.70
21540;DHT22;10931;52.164;5.518;2022-12-16T13:04:45;18.80;55.70
21540;DHT22;10931;52.164;5.518;2022-12-16T13:07:31;18.80;55.70
21540;DHT22;10931;52.164;5.518;2022-12-16T13:13:28;18.80;55.70
21540;DHT22;10931;52.164;5.518;2022-12-16T13:23:43;18.70;55.70
21540;DHT22;10931;52.164;5.518;2022-12-16T13:26:36;18.70;55.70
21540;DHT22;10931;52.164;5.518;2022-12-16T13:30:17;18.70;55.70
21540;DHT22;10931;52.164;5.518;2022-12-16T13:36:11;18.60;55.70
21540;DHT22;10931;52.164;5.518;2022-12-16T13:39:20;18.60;55.70
21540;DHT22;10931;52.164;5.518;2022-12-16T13:42:18;18.60;55.70
21540;DHT22;10931;52.164;5.518;2022-12-16T13:45:34;18.60;55.70
21540;DHT22;10931;52.164;5.518;2022-12-16T13:48:33;18.60;55.70
21540;DHT22;10931;52.164;5.518;2022-12-16T13:54:33;18.60;55.70
21540;DHT22;10931;52.164;5.518;2022-12-16T13:57:28;18.50;55.70
21540;DHT22;10931;52.164;5.518;2022-12-16T14:00:47;18.50;55.70
21540;DHT22;10931;52.164;5.518;2022-12-16T14:03:50;18.50;55.70
21540;DHT22;10931;52.164;5.518;2022-12-16T14:25:56;18.40;55.70
21540;DHT22;10931;52.164;5.518;2022-12-16T14:36:27;18.40;55.70
21540;DHT22;10931;52.164;5.518;2022-12-16T14:39:22;18.40;55.80
21540;DHT22;10931;52.164;5.518;2022-12-16T14:42:32;18.40;55.70
21540;DHT22;10931;52.164;5.518;2022-12-16T14:45:34;18.40;55.70
21540;DHT22;10931;52.164;5.518;2022-12-16T15:32:51;18.20;55.90
21540;DHT22;10931;52.164;5.518;2022-12-16T15:36:00;18.20;55.90
21540;DHT22;10931;52.164;5.518;2022-12-16T15:38:45;18.20;55.90
21540;DHT22;10931;52.164;5.518;2022-12-16T15:41:36;18.30;56.00
21540;DHT22;10931;52.164;5.518;2022-12-16T15:44:26;18.20;55.90
21540;DHT22;10931;52.164;5.518;2022-12-16T15:47:34;18.20;56.00
21540;DHT22;10931;52.164;5.518;2022-12-16T15:50:36;18.20;56.00
21540;DHT22;10931;52.164;5.518;2022-12-16T15:53:31;18.10;55.90
21540;DHT22;10931;52.164;5.518;2022-12-16T15:56:33;18.10;55.90
21540;DHT22;10931;52.164;5.518;2022-12-16T16:02:24;18.10;55.90
21540;DHT22;10931;52.164;5.518;2022-12-16T16:05:20;18.00;55.90
21540;DHT22;10931;52.164;5.518;2022-12-16T16:08:06;18.00;55.90
21540;DHT22;10931;52.164;5.518;2022-12-16T16:10:50;18.00;55.90
21540;DHT22;10931;52.164;5.518;2022-12-16T16:13:34;17.90;55.80
21540;DHT22;10931;52.164;5.518;2022-12-16T16:16:18;17.90;55.80
21540;DHT22;10931;52.164;5.518;2022-12-16T16:19:19;17.90;55.90
21540;DHT22;10931;52.164;5.518;2022-12-16T16:22:12;17.90;55.90
21540;DHT22;10931;52.164;5.518;2022-12-16T16:25:02;17.90;55.90
21540;DHT22;10931;52.164;5.518;2022-12-16T16:27:53;17.80;55.90
21540;DHT22;10931;52.164;5.518;2022-12-16T16:30:38;17.80;55.90
21540;DHT22;10931;52.164;5.518;2022-12-16T16:33:31;17.80;55.90
21540;DHT22;10931;52.164;5.518;2022-12-16T16:36:24;17.80;55.90
21540;DHT22;10931;52.164;5.518;2022-12-16T16:39:36;17.80;55.90
21540;DHT22;10931;52.164;5.518;2022-12-16T16:42:20;17.70;55.90
21540;DHT22;10931;52.164;5.518;2022-12-16T16:45:08;17.70;55.90
21540;DHT22;10931;52.164;5.518;2022-12-16T16:48:15;17.70;55.90
21540;DHT22;10931;52.164;5.518;2022-12-16T16:51:12;17.70;55.90
21540;DHT22;10931;52.164;5.518;2022-12-16T16:54:00;17.60;55.90
21540;DHT22;10931;52.164;5.518;2022-12-16T16:56:44;17.60;55.90
21540;DHT22;10931;52.164;5.518;2022-12-16T16:59:31;17.60;55.90
21540;DHT22;10931;52.164;5.518;2022-12-16T17:02:21;17.60;55.90
21540;DHT22;10931;52.164;5.518;2022-12-16T17:05:05;17.60;55.90
21540;DHT22;10931;52.164;5.518;2022-12-16T17:07:55;17.50;55.90
21540;DHT22;10931;52.164;5.518;2022-12-16T17:10:43;17.50;56.50
21540;DHT22;10931;52.164;5.518;2022-12-16T17:13:28;17.50;55.90
21540;DHT22;10931;52.164;5.518;2022-12-16T17:16:20;17.50;55.90
21540;DHT22;10931;52.164;5.518;2022-12-16T17:19:14;17.50;55.90
21540;DHT22;10931;52.164;5.518;2022-12-16T17:22:15;17.50;56.00
21540;DHT22;10931;52.164;5.518;2022-12-16T17:25:00;17.40;55.90
21540;DHT22;10931;52.164;5.518;2022-12-16T17:27:50;17.40;55.90
21540;DHT22;10931;52.164;5.518;2022-12-16T17:30:39;17.40;55.90
21540;DHT22;10931;52.164;5.518;2022-12-16T17:33:33;17.30;55.90
21540;DHT22;10931;52.164;5.518;2022-12-16T17:36:24;17.40;55.90
21540;DHT22;10931;52.164;5.518;2022-12-16T17:39:10;17.30;55.90
21540;DHT22;10931;52.164;5.518;2022-12-16T17:41:56;17.30;55.90
21540;DHT22;10931;52.164;5.518;2022-12-16T17:48:04;17.30;55.90
21540;DHT22;10931;52.164;5.518;2022-12-16T17:51:13;17.30;55.90
21540;DHT22;10931;52.164;5.518;2022-12-16T17:56:29;17.20;55.90
21540;DHT22;10931;52.164;5.518;2022-12-16T17:59:21;17.20;55.90
21540;DHT22;10931;52.164;5.518;2022-12-16T18:02:23;17.20;55.90
21540;DHT22;10931;52.164;5.518;2022-12-16T18:05:10;17.20;55.90
21540;DHT22;10931;52.164;5.518;2022-12-16T18:07:56;17.20;56.00
21540;DHT22;10931;52.164;5.518;2022-12-16T18:10:59;17.20;56.00
21540;DHT22;10931;52.164;5.518;2022-12-16T18:16:48;17.10;56.00
21540;DHT22;10931;52.164;5.518;2022-12-16T18:19:53;17.10;56.00
21540;DHT22;10931;52.164;5.518;2022-12-16T18:22:43;17.10;56.00
21540;DHT22;10931;52.164;5.518;2022-12-16T18:25:28;17.10;56.00
21540;DHT22;10931;52.164;5.518;2022-12-16T18:28:22;17.10;56.00
21540;DHT22;10931;52.164;5.518;2022-12-16T18:31:16;17.00;56.00
21540;DHT22;10931;52.164;5.518;2022-12-16T18:34:23;17.00;56.00
21540;DHT22;10931;52.164;5.518;2022-12-16T18:37:10;17.00;56.00
21540;DHT22;10931;52.164;5.518;2022-12-16T18:39:57;17.00;56.00
21540;DHT22;10931;52.164;5.518;2022-12-16T18:43:14;17.00;56.00
21540;DHT22;10931;52.164;5.518;2022-12-16T18:45:59;17.00;56.00
21540;DHT22;10931;52.164;5.518;2022-12-16T18:48:45;16.90;56.00
21540;DHT22;10931;52.164;5.518;2022-12-16T18:51:29;16.90;56.00
21540;DHT22;10931;52.164;5.518;2022-12-16T18:54:27;16.90;56.00
21540;DHT22;10931;52.164;5.518;2022-12-16T18:57:12;16.90;56.10
21540;DHT22;10931;52.164;5.518;2022-12-16T19:00:03;16.90;56.10
21540;DHT22;10931;52.164;5.518;2022-12-16T19:02:55;16.90;56.00
21540;DHT22;10931;52.164;5.518;2022-12-16T19:05:41;16.90;56.10
21540;DHT22;10931;52.164;5.518;2022-12-16T19:08:35;16.80;56.00
21540;DHT22;10931;52.164;5.518;2022-12-16T19:11:22;16.80;56.00
21540;DHT22;10931;52.164;5.518;2022-12-16T19:14:10;16.80;56.00
21540;DHT22;10931;52.164;5.518;2022-12-16T19:16:55;16.80;56.10
21540;DHT22;10931;52.164;5.518;2022-12-16T19:19:44;16.80;56.10
21540;DHT22;10931;52.164;5.518;2022-12-16T19:22:54;16.80;56.10
21540;DHT22;10931;52.164;5.518;2022-12-16T19:25:40;16.70;56.00
21540;DHT22;10931;52.164;5.518;2022-12-16T19:28:27;16.80;56.10
21540;DHT22;10931;52.164;5.518;2022-12-16T19:31:22;16.80;56.10
21540;DHT22;10931;52.164;5.518;2022-12-16T19:34:09;16.70;56.10
21540;DHT22;10931;52.164;5.518;2022-12-16T19:36:54;16.70;56.10
21540;DHT22;10931;52.164;5.518;2022-12-16T19:39:40;16.70;56.10
21540;DHT22;10931;52.164;5.518;2022-12-16T19:42:24;16.70;56.10
21540;DHT22;10931;52.164;5.518;2022-12-16T19:45:16;16.70;56.10
21540;DHT22;10931;52.164;5.518;2022-12-16T19:48:09;16.70;56.10
21540;DHT22;10931;52.164;5.518;2022-12-16T19:51:01;16.70;56.10
21540;DHT22;10931;52.164;5.518;2022-12-16T19:53:49;16.60;56.10
21540;DHT22;10931;52.164;5.518;2022-12-16T19:56:40;16.60;56.10
21540;DHT22;10931;52.164;5.518;2022-12-16T19:59:27;16.60;56.10
21540;DHT22;10931;52.164;5.518;2022-12-16T20:02:19;16.60;56.10
21540;DHT22;10931;52.164;5.518;2022-12-16T20:11:50;16.60;56.20
21540;DHT22;10931;52.164;5.518;2022-12-16T20:14:44;16.60;56.20
21540;DHT22;10931;52.164;5.518;2022-12-16T20:17:28;16.50;56.10
21540;DHT22;10931;52.164;5.518;2022-12-16T20:20:12;16.50;56.10
21540;DHT22;10931;52.164;5.518;2022-12-16T20:22:59;16.50;56.10
21540;DHT22;10931;52.164;5.518;2022-12-16T20:25:43;16.50;56.10
21540;DHT22;10931;52.164;5.518;2022-12-16T20:32:20;16.50;56.20
21540;DHT22;10931;52.164;5.518;2022-12-16T20:35:17;16.40;56.10
21540;DHT22;10931;52.164;5.518;2022-12-16T20:38:01;16.50;56.20
21540;DHT22;10931;52.164;5.518;2022-12-16T20:41:21;16.40;56.20
21540;DHT22;10931;52.164;5.518;2022-12-16T20:47:55;16.40;56.20
21540;DHT22;10931;52.164;5.518;2022-12-16T20:51:02;16.40;56.20
21540;DHT22;10931;52.164;5.518;2022-12-16T20:53:58;16.40;56.20
21540;DHT22;10931;52.164;5.518;2022-12-16T20:57:01;16.40;56.20
21540;DHT22;10931;52.164;5.518;2022-12-16T21:03:08;16.40;56.30
21540;DHT22;10931;52.164;5.518;2022-12-16T21:05:55;16.30;56.20
21540;DHT22;10931;52.164;5.518;2022-12-16T21:09:30;16.30;56.20
21540;DHT22;10931;52.164;5.518;2022-12-16T21:12:13;16.30;56.20
21540;DHT22;10931;52.164;5.518;2022-12-16T21:14:59;16.30;56.20
21540;DHT22;10931;52.164;5.518;2022-12-16T21:17:53;16.30;56.20
21540;DHT22;10931;52.164;5.518;2022-12-16T21:21:07;16.30;56.20
21540;DHT22;10931;52.164;5.518;2022-12-16T21:23:59;16.30;56.30
21540;DHT22;10931;52.164;5.518;2022-12-16T21:27:00;16.20;56.20
21540;DHT22;10931;52.164;5.518;2022-12-16T21:33:47;16.20;56.20
21540;DHT22;10931;52.164;5.518;2022-12-16T21:36:44;16.20;56.20
21540;DHT22;10931;52.164;5.518;2022-12-16T21:39:49;16.20;56.30
21540;DHT22;10931;52.164;5.518;2022-12-16T21:42:46;16.20;56.30
21540;DHT22;10931;52.164;5.518;2022-12-16T21:45:33;16.20;56.30
21540;DHT22;10931;52.164;5.518;2022-12-16T21:48:35;16.20;56.30
21540;DHT22;10931;52.164;5.518;2022-12-16T21:51:48;16.20;56.30
21540;DHT22;10931;52.164;5.518;2022-12-16T21:54:40;16.20;56.30
21540;DHT22;10931;52.164;5.518;2022-12-16T21:57:27;16.10;56.30
21540;DHT22;10931;52.164;5.518;2022-12-16T22:00:22;16.10;56.30
21540;DHT22;10931;52.164;5.518;2022-12-16T22:03:08;16.10;56.30
21540;DHT22;10931;52.164;5.518;2022-12-16T22:06:11;16.10;56.30
21540;DHT22;10931;52.164;5.518;2022-12-16T22:09:00;16.10;56.30
21540;DHT22;10931;52.164;5.518;2022-12-16T22:11:45;16.10;56.30
21540;DHT22;10931;52.164;5.518;2022-12-16T22:14:29;16.10;56.30
21540;DHT22;10931;52.164;5.518;2022-12-16T22:17:17;16.10;56.40
21540;DHT22;10931;52.164;5.518;2022-12-16T22:20:25;16.00;56.30
21540;DHT22;10931;52.164;5.518;2022-12-16T22:23:18;16.10;56.40
21540;DHT22;10931;52.164;5.518;2022-12-16T22:26:05;16.10;56.40
21540;DHT22;10931;52.164;5.518;2022-12-16T22:28:51;16.00;56.30
21540;DHT22;10931;52.164;5.518;2022-12-16T22:34:50;16.00;56.30
21540;DHT22;10931;52.164;5.518;2022-12-16T22:37:41;16.00;56.30
21540;DHT22;10931;52.164;5.518;2022-12-16T22:43:54;16.00;56.40
21540;DHT22;10931;52.164;5.518;2022-12-16T22:46:43;16.00;56.40
21540;DHT22;10931;52.164;5.518;2022-12-16T22:49:27;16.00;56.40
21540;DHT22;10931;52.164;5.518;2022-12-16T22:52:18;16.00;56.40
21540;DHT22;10931;52.164;5.518;2022-12-16T22:55:05;15.90;56.40
21540;DHT22;10931;52.164;5.518;2022-12-16T22:58:02;15.90;56.40
21540;DHT22;10931;52.164;5.518;2022-12-16T23:00:51;15.90;56.40
21540;DHT22;10931;52.164;5.518;2022-12-16T23:03:36;15.90;56.40
21540;DHT22;10931;52.164;5.518;2022-12-16T23:06:24;15.90;56.40
21540;DHT22;10931;52.164;5.518;2022-12-16T23:12:44;15.90;56.40
21540;DHT22;10931;52.164;5.518;2022-12-16T23:15:49;15.90;56.40
21540;DHT22;10931;52.164;5.518;2022-12-16T23:18:47;15.90;56.40
21540;DHT22;10931;52.164;5.518;2022-12-16T23:21:56;15.80;56.40
21540;DHT22;10931;52.164;5.518;2022-12-16T23:24:56;15.80;56.40
21540;DHT22;10931;52.164;5.518;2022-12-16T23:28:06;15.80;56.40
21540;DHT22;10931;52.164;5.518;2022-12-16T23:33:23;15.80;56.40
21540;DHT22;10931;52.164;5.518;2022-12-16T23:36:15;15.80;56.40
21540;DHT22;10931;52.164;5.518;2022-12-16T23:42:48;15.80;56.50
21540;DHT22;10931;52.164;5.518;2022-12-16T23:45:44;15.80;56.40
21540;DHT22;10931;52.164;5.518;2022-12-16T23:48:47;15.80;56.40
21540;DHT22;10931;52.164;5.518;2022-12-16T23:51:37;15.70;56.50
21540;DHT22;10931;52.164;5.518;2022-12-16T23:54:22;15.70;56.40
21540;DHT22;10931;52.164;5.518;2022-12-16T23:57:17;15.70;56.40
